Time;durP1;ratioP1;P1;durP2;ratioP2;P2;SDS_P1;SDS_P2;PMS_P1;PMS_P2;Temp;Humidity;BMP_temperature;BMP_pressure;BME280_temperature;BME280_humidity;BME280_pressure;Samples;Min_cycle;Max_cycle;Signal;HPM_P1;HPM_P2
2023/03/06 00:00:51;;;;;;;17.98;6.32;;;3.10;92.00;;;;;;6113811;23;20028;-80
2023/03/06 00:03:22;;;;;;;11.38;4.75;;;3.10;92.00;;;;;;6140876;23;20013;-80
2023/03/06 00:05:49;;;;;;;11.55;4.43;;;3.10;92.10;;;;;;6119117;23;20044;-80
2023/03/06 00:08:17;;;;;;;15.70;5.13;;;3.10;92.10;;;;;;6120227;23;20043;-80
2023/03/06 00:10:44;;;;;;;12.70;5.93;;;3.20;92.20;;;;;;6142142;23;20472;-80
2023/03/06 00:13:15;;;;;;;16.13;6.22;;;3.10;92.00;;;;;;6120327;23;20029;-80
2023/03/06 00:15:48;;;;;;;8.35;3.42;;;3.10;92.10;;;;;;6116363;23;20479;-80
2023/03/06 00:18:15;;;;;;;25.30;7.93;;;3.10;91.90;;;;;;6115553;23;20028;-80
2023/03/06 00:20:43;;;;;;;19.67;7.00;;;3.10;92.00;;;;;;6139352;23;20026;-80
2023/03/06 00:23:11;;;;;;;21.83;6.97;;;3.20;91.90;;;;;;6113395;23;20068;-80
2023/03/06 00:25:43;;;;;;;16.83;5.70;;;3.20;91.90;;;;;;6115277;23;20018;-80
2023/03/06 00:28:14;;;;;;;14.57;5.38;;;3.10;91.90;;;;;;6140333;23;20418;-80
2023/03/06 00:30:42;;;;;;;14.98;5.00;;;3.00;91.90;;;;;;6119321;23;20433;-80
2023/03/06 00:33:10;;;;;;;12.88;4.25;;;3.10;91.80;;;;;;6120261;23;20364;-80
2023/03/06 00:35:41;;;;;;;11.48;4.40;;;3.10;91.80;;;;;;6094859;23;20140;-80
2023/03/06 00:38:11;;;;;;;12.18;4.13;;;3.00;91.90;;;;;;6118066;23;20456;-80
2023/03/06 00:40:40;;;;;;;10.10;3.88;;;3.20;92.00;;;;;;6148206;23;20028;-80
2023/03/06 00:43:08;;;;;;;7.25;2.80;;;2.90;92.00;;;;;;6139445;23;20021;-80
2023/03/06 00:45:36;;;;;;;11.80;4.28;;;3.10;91.90;;;;;;6120098;23;20021;-80
2023/03/06 00:48:06;;;;;;;7.15;2.78;;;3.10;92.00;;;;;;6117085;23;20458;-80
2023/03/06 00:50:34;;;;;;;8.70;3.35;;;3.30;92.30;;;;;;6120225;23;20111;-80
2023/03/06 00:53:04;;;;;;;12.00;3.53;;;3.00;92.40;;;;;;6121315;23;20043;-80
2023/03/06 00:55:32;;;;;;;11.77;3.50;;;3.20;92.30;;;;;;6142640;23;20029;-80
2023/03/06 00:58:00;;;;;;;9.70;3.05;;;3.00;92.50;;;;;;6166316;23;20025;-80
2023/03/06 01:00:30;;;;;;;10.38;4.07;;;3.10;92.60;;;;;;6116348;23;20017;-80
2023/03/06 01:02:57;;;;;;;10.50;3.72;;;3.30;92.70;;;;;;6121179;23;20025;-80
2023/03/06 01:05:25;;;;;;;15.95;4.60;;;3.30;92.80;;;;;;6139318;23;20045;-80
2023/03/06 01:07:55;;;;;;;13.50;4.25;;;3.20;92.90;;;;;;6116591;23;20496;-80
2023/03/06 01:10:22;;;;;;;12.00;4.60;;;3.20;92.90;;;;;;6114829;23;20025;-80
2023/03/06 01:12:50;;;;;;;11.52;3.97;;;3.20;93.00;;;;;;6140901;23;20021;-79
2023/03/06 01:15:17;;;;;;;11.68;4.40;;;3.10;93.00;;;;;;6144528;23;20202;-80
2023/03/06 01:17:45;;;;;;;12.05;4.55;;;3.20;93.30;;;;;;6115586;23;20095;-80
2023/03/06 01:20:14;;;;;;;11.68;4.00;;;3.10;93.00;;;;;;6115775;23;20049;-80
2023/03/06 01:22:42;;;;;;;9.45;3.72;;;3.10;93.10;;;;;;6141659;23;20352;-80
2023/03/06 01:25:10;;;;;;;12.77;4.68;;;3.10;93.00;;;;;;6121314;23;20707;-80
2023/03/06 01:27:37;;;;;;;10.00;3.72;;;3.10;93.10;;;;;;6121865;23;20028;-79
2023/03/06 01:30:05;;;;;;;11.43;4.07;;;3.20;93.20;;;;;;6121863;23;20022;-80
2023/03/06 01:32:33;;;;;;;13.68;4.35;;;3.30;93.20;;;;;;6121877;23;20117;-80
2023/03/06 01:35:03;;;;;;;13.27;4.18;;;3.00;93.20;;;;;;6119447;23;20112;-80
2023/03/06 01:37:30;;;;;;;11.43;3.88;;;3.20;93.20;;;;;;6097990;23;20025;-80
2023/03/06 01:39:57;;;;;;;10.75;4.85;;;3.20;93.40;;;;;;6153969;23;20053;-80
2023/03/06 01:42:25;;;;;;;14.75;4.72;;;3.10;93.50;;;;;;6100230;23;20022;-80
2023/03/06 01:45:13;;;;;;;11.70;4.25;;;3.20;93.40;;;;;;6120116;23;20022;-80
2023/03/06 01:47:41;;;;;;;13.52;4.25;;;3.10;93.60;;;;;;6120250;23;20017;-80
2023/03/06 01:50:11;;;;;;;11.52;4.40;;;3.10;93.50;;;;;;6116597;23;20049;-80
2023/03/06 01:52:49;;;;;;;11.50;4.68;;;3.10;93.60;;;;;;6117103;23;20030;-80
2023/03/06 01:55:23;;;;;;;10.82;3.65;;;3.10;93.60;;;;;;6118239;23;20053;-80
2023/03/06 01:58:00;;;;;;;10.45;4.82;;;3.20;94.00;;;;;;6118836;23;20029;-80
2023/03/06 02:00:28;;;;;;;12.63;5.05;;;3.10;93.60;;;;;;6121215;23;20063;-80
2023/03/06 02:03:12;;;;;;;11.90;4.57;;;3.10;93.70;;;;;;6117904;23;20029;-80
2023/03/06 02:05:40;;;;;;;10.77;4.20;;;3.20;93.80;;;;;;6123685;23;20500;-80
2023/03/06 02:08:10;;;;;;;12.07;5.35;;;3.10;93.60;;;;;;6139026;23;20118;-80
2023/03/06 02:11:05;;;;;;;11.40;3.70;;;3.10;93.60;;;;;;6116422;23;20025;-80
2023/03/06 02:13:39;;;;;;;10.32;4.10;;;3.10;93.70;;;;;;6123767;23;20032;-80
2023/03/06 02:16:10;;;;;;;11.80;3.67;;;3.10;93.60;;;;;;6115712;23;20021;-80
2023/03/06 02:18:39;;;;;;;14.30;4.65;;;3.10;93.70;;;;;;6118845;23;20029;-79
2023/03/06 02:21:19;;;;;;;10.50;4.07;;;3.20;93.60;;;;;;6120480;23;20032;-80
2023/03/06 02:24:24;;;;;;;14.25;4.30;;;3.10;93.50;;;;;;6117315;23;20453;-80
2023/03/06 02:26:53;;;;;;;9.70;3.35;;;3.10;93.40;;;;;;6117887;23;20484;-80
2023/03/06 02:29:23;;;;;;;13.13;3.78;;;3.10;93.40;;;;;;6117984;23;20027;-80
2023/03/06 02:31:53;;;;;;;12.25;4.13;;;3.10;93.30;;;;;;6143248;23;20532;-80
2023/03/06 02:34:20;;;;;;;12.32;4.18;;;3.40;93.40;;;;;;6141559;23;20033;-80
2023/03/06 02:36:51;;;;;;;12.32;4.28;;;2.80;93.30;;;;;;6118266;23;20032;-80
2023/03/06 02:39:22;;;;;;;10.90;4.47;;;3.10;93.30;;;;;;6120341;23;20440;-80
2023/03/06 02:41:50;;;;;;;9.02;2.97;;;3.10;93.30;;;;;;6126951;23;20558;-80
2023/03/06 02:44:20;;;;;;;9.95;3.55;;;3.10;93.40;;;;;;6128971;23;20025;-80
2023/03/06 02:46:47;;;;;;;9.82;4.13;;;3.20;93.50;;;;;;6131775;23;20029;-80
2023/03/06 02:49:14;;;;;;;6.78;2.95;;;3.00;93.30;;;;;;6134968;23;20021;-80
2023/03/06 02:51:42;;;;;;;9.93;3.60;;;3.20;93.30;;;;;;6133079;23;20029;-80
2023/03/06 02:54:11;;;;;;;10.85;3.60;;;3.10;93.20;;;;;;6151810;23;20035;-80
2023/03/06 02:56:40;;;;;;;11.75;3.75;;;3.10;93.20;;;;;;6126012;23;20029;-80
2023/03/06 02:59:08;;;;;;;12.15;3.70;;;3.00;93.30;;;;;;6124838;23;20037;-80
2023/03/06 03:01:38;;;;;;;11.07;4.05;;;3.00;93.10;;;;;;6127777;23;20017;-80
2023/03/06 03:04:08;;;;;;;10.77;4.13;;;3.10;93.00;;;;;;6151414;23;20053;-80
2023/03/06 03:06:38;;;;;;;10.45;3.97;;;3.10;93.10;;;;;;6145559;23;20412;-80
2023/03/06 03:09:06;;;;;;;15.38;5.07;;;3.10;93.00;;;;;;6121794;23;20135;-80
2023/03/06 03:11:34;;;;;;;12.38;3.50;;;3.30;93.00;;;;;;6124575;23;20476;-80
2023/03/06 03:14:01;;;;;;;10.05;3.33;;;3.10;92.90;;;;;;6147953;23;20029;-80
2023/03/06 03:16:29;;;;;;;8.77;3.58;;;3.00;92.90;;;;;;6147559;23;20035;-80
2023/03/06 03:18:57;;;;;;;10.60;3.65;;;3.10;92.90;;;;;;6123187;23;20029;-80
2023/03/06 03:21:26;;;;;;;10.85;4.13;;;3.20;92.80;;;;;;6150392;23;20032;-80
2023/03/06 03:23:54;;;;;;;10.93;3.80;;;3.10;92.70;;;;;;6150220;23;20032;-80
2023/03/06 03:26:24;;;;;;;10.63;3.58;;;3.20;93.00;;;;;;6122443;23;20021;-79
2023/03/06 03:29:03;;;;;;;10.38;3.60;;;3.20;92.80;;;;;;6149146;23;20021;-80
2023/03/06 03:31:31;;;;;;;9.07;3.72;;;3.30;92.60;;;;;;6126620;23;20361;-80
2023/03/06 03:34:03;;;;;;;10.93;3.15;;;3.10;92.50;;;;;;6126602;23;20468;-80
2023/03/06 03:36:34;;;;;;;6.85;3.05;;;3.10;92.40;;;;;;6123739;23;20029;-80
2023/03/06 03:39:02;;;;;;;9.63;3.67;;;3.20;92.60;;;;;;6150924;23;20024;-80
2023/03/06 03:41:31;;;;;;;10.82;4.30;;;3.20;92.70;;;;;;6127528;23;20016;-80
2023/03/06 03:44:03;;;;;;;9.50;4.07;;;3.10;92.70;;;;;;6125088;23;20042;-80
2023/03/06 03:46:33;;;;;;;10.32;4.25;;;3.10;92.80;;;;;;6128369;23;20451;-80
2023/03/06 03:49:02;;;;;;;11.95;4.25;;;3.10;93.00;;;;;;6124622;23;20021;-80
2023/03/06 03:51:31;;;;;;;11.70;4.18;;;3.20;92.80;;;;;;6122016;23;20048;-80
2023/03/06 03:53:59;;;;;;;11.05;3.53;;;3.00;92.60;;;;;;6128504;23;20017;-80
2023/03/06 03:56:33;;;;;;;12.13;3.90;;;2.90;92.50;;;;;;6153045;23;20025;-80
2023/03/06 03:59:06;;;;;;;12.23;4.05;;;3.20;92.70;;;;;;6134132;23;20055;-80
2023/03/06 04:01:44;;;;;;;8.40;3.38;;;3.10;92.70;;;;;;6133330;23;20016;-80
2023/03/06 04:04:12;;;;;;;11.88;4.25;;;3.20;92.80;;;;;;6130196;23;20045;-80
2023/03/06 04:06:42;;;;;;;9.85;3.95;;;3.20;92.90;;;;;;6132245;23;20029;-80
2023/03/06 04:09:10;;;;;;;13.73;3.92;;;3.10;92.90;;;;;;6126370;23;20025;-81
2023/03/06 04:11:38;;;;;;;11.02;3.67;;;3.20;92.90;;;;;;6149408;23;20029;-80
2023/03/06 04:14:07;;;;;;;10.90;3.53;;;3.00;92.90;;;;;;6150188;23;20448;-80
2023/03/06 04:16:34;;;;;;;11.73;4.20;;;3.20;92.90;;;;;;6123047;23;20025;-80
2023/03/06 04:19:02;;;;;;;10.85;3.88;;;3.20;92.90;;;;;;6154880;23;20021;-80
2023/03/06 04:21:30;;;;;;;12.23;3.83;;;3.00;92.90;;;;;;6128604;23;20025;-80
2023/03/06 04:23:57;;;;;;;16.13;6.55;;;3.20;92.90;;;;;;6127696;23;20044;-80
2023/03/06 04:26:25;;;;;;;21.73;9.40;;;3.30;92.80;;;;;;6132377;23;20028;-80
2023/03/06 04:28:54;;;;;;;20.98;8.18;;;3.10;92.70;;;;;;6131921;23;20021;-80
2023/03/06 04:31:21;;;;;;;16.88;7.45;;;3.10;92.70;;;;;;6134396;23;20259;-80
2023/03/06 04:33:52;;;;;;;16.35;6.55;;;3.20;93.10;;;;;;6159882;23;20020;-80
2023/03/06 04:36:33;;;;;;;20.13;7.05;;;3.10;93.20;;;;;;6137496;23;20031;-80
2023/03/06 04:39:05;;;;;;;15.65;5.70;;;3.00;93.30;;;;;;6132196;23;20035;-80
2023/03/06 04:41:34;;;;;;;22.98;8.15;;;3.20;93.20;;;;;;6135504;23;20021;-82
2023/03/06 04:44:01;;;;;;;20.60;7.85;;;3.20;93.10;;;;;;6160135;23;20048;-80
2023/03/06 04:46:29;;;;;;;16.23;5.85;;;3.20;93.00;;;;;;6159135;23;20032;-80
2023/03/06 04:48:56;;;;;;;13.88;5.45;;;3.00;92.90;;;;;;6134398;23;20017;-80
2023/03/06 04:51:24;;;;;;;15.02;5.88;;;3.20;92.90;;;;;;6160313;23;20054;-80
2023/03/06 04:53:51;;;;;;;15.25;5.70;;;3.10;93.20;;;;;;6135689;23;20021;-80
2023/03/06 04:56:18;;;;;;;12.57;4.93;;;3.10;93.20;;;;;;6138021;23;20528;-80
2023/03/06 04:58:46;;;;;;;13.98;4.90;;;3.10;93.10;;;;;;6136371;23;20017;-80
2023/03/06 05:01:13;;;;;;;16.48;4.82;;;3.20;93.10;;;;;;6138143;23;20021;-80
2023/03/06 05:03:41;;;;;;;12.20;3.55;;;2.90;92.90;;;;;;6163333;23;20027;-80
2023/03/06 05:06:08;;;;;;;13.35;4.38;;;3.20;93.20;;;;;;6139503;23;20017;-80
2023/03/06 05:08:35;;;;;;;12.38;4.35;;;3.20;93.50;;;;;;6138596;23;20028;-80
2023/03/06 05:11:06;;;;;;;13.50;4.78;;;3.20;93.90;;;;;;6166748;23;20025;-80
2023/03/06 05:13:33;;;;;;;11.45;4.78;;;3.20;94.00;;;;;;6132768;23;20021;-80
2023/03/06 05:16:05;;;;;;;12.88;5.57;;;3.20;94.00;;;;;;6141218;23;20039;-80
2023/03/06 05:18:33;;;;;;;9.57;4.05;;;3.00;93.80;;;;;;6139081;23;20047;-80
2023/03/06 05:21:05;;;;;;;13.23;4.85;;;3.10;94.20;;;;;;6139151;23;20122;-80
2023/03/06 05:23:37;;;;;;;11.00;3.88;;;3.00;94.10;;;;;;6144754;23;20021;-81
2023/03/06 05:26:10;;;;;;;12.95;4.30;;;3.10;94.20;;;;;;6088658;23;20029;-80
2023/03/06 05:28:41;;;;;;;14.40;5.63;;;3.20;94.20;;;;;;6142306;23;20025;-80
2023/03/06 05:31:08;;;;;;;18.58;6.57;;;3.00;94.20;;;;;;6143313;23;20065;-80
2023/03/06 05:33:41;;;;;;;27.58;9.30;;;3.20;94.40;;;;;;6139838;23;20021;-80
2023/03/06 05:36:09;;;;;;;28.92;9.30;;;3.10;94.30;;;;;;6140662;23;20025;-80
2023/03/06 05:38:36;;;;;;;23.02;8.50;;;3.20;94.50;;;;;;6138229;23;20021;-80
2023/03/06 05:41:04;;;;;;;28.95;10.60;;;3.10;94.70;;;;;;6139328;23;20021;-80
2023/03/06 05:43:32;;;;;;;26.67;9.60;;;3.20;94.70;;;;;;6134608;23;20104;-80
2023/03/06 05:46:04;;;;;;;25.05;8.40;;;2.90;94.90;;;;;;6132371;23;20025;-81
2023/03/06 05:48:33;;;;;;;21.73;8.30;;;3.20;94.70;;;;;;6163542;23;20024;-80
2023/03/06 05:51:01;;;;;;;21.52;8.48;;;3.10;95.00;;;;;;6138531;23;20021;-80
2023/03/06 05:53:29;;;;;;;30.05;9.45;;;3.10;95.40;;;;;;6162702;23;20033;-80
2023/03/06 05:56:09;;;;;;;28.90;9.95;;;3.10;95.20;;;;;;6167162;23;20025;-80
2023/03/06 05:58:40;;;;;;;22.92;9.18;;;3.10;95.50;;;;;;6142770;23;20093;-80
2023/03/06 06:01:12;;;;;;;22.85;9.82;;;3.20;95.70;;;;;;6167177;23;20021;-80
2023/03/06 06:03:42;;;;;;;24.58;9.10;;;3.20;95.30;;;;;;6142904;23;20025;-80
2023/03/06 06:06:13;;;;;;;24.48;9.63;;;3.20;95.30;;;;;;6143160;23;20025;-80
2023/03/06 06:08:40;;;;;;;22.85;8.40;;;3.20;95.40;;;;;;6169230;23;20037;-80
2023/03/06 06:11:09;;;;;;;23.80;9.32;;;3.10;95.40;;;;;;6138598;23;20021;-81
2023/03/06 06:13:37;;;;;;;20.15;8.20;;;3.30;95.30;;;;;;6136838;23;20056;-81
2023/03/06 06:16:15;;;;;;;19.38;7.68;;;3.20;95.30;;;;;;6136806;23;20599;-80
2023/03/06 06:18:42;;;;;;;21.50;8.20;;;3.20;95.20;;;;;;6137675;23;20096;-80
2023/03/06 06:21:13;;;;;;;22.13;8.60;;;3.40;95.50;;;;;;6135036;23;20040;-81
2023/03/06 06:23:41;;;;;;;20.75;8.25;;;3.10;95.40;;;;;;6138842;23;20079;-81
2023/03/06 06:26:09;;;;;;;18.98;7.43;;;3.30;95.70;;;;;;6111796;23;20035;-80
2023/03/06 06:28:37;;;;;;;20.05;8.55;;;3.30;95.40;;;;;;6140227;23;20516;-81
2023/03/06 06:31:11;;;;;;;25.05;8.85;;;3.30;95.30;;;;;;6140142;23;20021;-81
2023/03/06 06:33:43;;;;;;;21.67;8.45;;;3.30;95.30;;;;;;6154781;23;20432;-80
2023/03/06 06:36:19;;;;;;;21.70;7.53;;;3.40;95.40;;;;;;6134155;23;20035;-80
2023/03/06 06:38:47;;;;;;;24.30;8.20;;;3.40;95.60;;;;;;6134580;23;20021;-80
2023/03/06 06:41:15;;;;;;;24.15;8.68;;;3.40;95.40;;;;;;6162341;23;20025;-80
2023/03/06 06:44:13;;;;;;;20.40;7.82;;;3.40;95.30;;;;;;6150830;23;20032;-80
2023/03/06 06:46:43;;;;;;;26.52;8.63;;;3.40;95.00;;;;;;6148631;23;20048;-80
2023/03/06 06:49:38;;;;;;;48.47;14.30;;;3.40;94.50;;;;;;6155846;23;20013;-80
2023/03/06 06:52:06;;;;;;;60.63;18.38;;;3.50;94.90;;;;;;6154403;23;20017;-80
2023/03/06 06:54:39;;;;;;;71.25;20.67;;;3.40;94.90;;;;;;6149428;23;20029;-80
2023/03/06 06:57:11;;;;;;;59.45;17.48;;;3.30;94.80;;;;;;6147771;23;20441;-81
2023/03/06 06:59:38;;;;;;;42.05;11.88;;;3.40;95.20;;;;;;6171003;23;20111;-80
2023/03/06 07:02:06;;;;;;;34.10;10.85;;;3.50;94.80;;;;;;6172092;23;20021;-80
2023/03/06 07:04:38;;;;;;;21.70;7.95;;;3.50;94.90;;;;;;6147021;23;20041;-80
2023/03/06 07:07:22;;;;;;;25.23;7.35;;;3.50;95.00;;;;;;6176821;23;20037;-80
2023/03/06 07:09:52;;;;;;;21.73;7.15;;;3.60;95.10;;;;;;6177024;23;20001;-81
2023/03/06 07:12:20;;;;;;;27.25;7.60;;;3.40;95.00;;;;;;6136492;23;20025;-80
2023/03/06 07:14:49;;;;;;;28.55;7.97;;;3.60;94.90;;;;;;6157926;23;20520;-80
2023/03/06 07:17:20;;;;;;;23.30;7.80;;;3.70;94.80;;;;;;6143408;23;20112;-81
2023/03/06 07:19:48;;;;;;;21.27;6.78;;;3.60;94.90;;;;;;6130157;23;20115;-80
2023/03/06 07:22:15;;;;;;;24.88;6.88;;;3.70;94.90;;;;;;6128733;23;20067;-80
2023/03/06 07:24:42;;;;;;;18.42;7.03;;;3.60;94.80;;;;;;6156325;23;20080;-80
2023/03/06 07:27:10;;;;;;;15.85;6.05;;;3.80;94.90;;;;;;6148695;23;20052;-80
2023/03/06 07:29:37;;;;;;;14.55;6.75;;;3.70;95.10;;;;;;6148382;23;20508;-80
2023/03/06 07:32:07;;;;;;;22.83;8.23;;;3.80;94.80;;;;;;6146953;23;20017;-80
2023/03/06 07:34:34;;;;;;;16.70;6.20;;;3.80;94.80;;;;;;6177090;23;20021;-81
2023/03/06 07:37:02;;;;;;;19.23;6.45;;;3.90;94.10;;;;;;6137162;23;20086;-80
2023/03/06 07:39:29;;;;;;;17.95;6.63;;;3.80;94.00;;;;;;6173365;23;20036;-80
2023/03/06 07:42:00;;;;;;;16.83;6.95;;;3.90;94.40;;;;;;6149162;23;20088;-80
2023/03/06 07:44:27;;;;;;;17.27;6.53;;;3.90;94.10;;;;;;6174549;23;20056;-80
2023/03/06 07:46:55;;;;;;;16.30;6.53;;;3.90;93.80;;;;;;6146151;23;20108;-80
2023/03/06 07:49:22;;;;;;;18.13;6.25;;;3.80;93.70;;;;;;6171333;23;20025;-80
2023/03/06 07:51:50;;;;;;;14.77;5.35;;;3.80;93.80;;;;;;6136456;23;20029;-80
2023/03/06 07:54:17;;;;;;;21.10;5.35;;;3.90;93.70;;;;;;6143931;23;20031;-80
2023/03/06 07:56:48;;;;;;;17.77;6.65;;;4.00;93.70;;;;;;6156953;23;20048;-80
2023/03/06 07:59:21;;;;;;;15.98;6.13;;;3.90;93.50;;;;;;6141036;23;20384;-80
2023/03/06 08:01:49;;;;;;;15.65;6.72;;;4.40;93.60;;;;;;6130988;23;20021;-80
2023/03/06 08:04:16;;;;;;;18.83;7.43;;;4.10;93.60;;;;;;6165621;23;20048;-80
2023/03/06 08:06:44;;;;;;;24.55;10.63;;;4.30;93.40;;;;;;6138941;23;20110;-80
2023/03/06 08:09:11;;;;;;;32.97;11.07;;;4.30;93.10;;;;;;6139975;23;20017;-80
2023/03/06 08:11:39;;;;;;;30.30;10.77;;;4.40;92.90;;;;;;6138660;23;20032;-80
2023/03/06 08:14:06;;;;;;;33.17;11.82;;;4.40;92.70;;;;;;6144489;23;20036;-80
2023/03/06 08:16:33;;;;;;;31.77;10.20;;;4.60;92.90;;;;;;6137291;23;20025;-80
2023/03/06 08:19:03;;;;;;;25.08;8.63;;;4.60;92.90;;;;;;6131018;23;20028;-80
2023/03/06 08:21:31;;;;;;;20.98;8.05;;;4.70;92.10;;;;;;6158376;23;20089;-81
2023/03/06 08:23:58;;;;;;;15.90;6.47;;;4.70;92.00;;;;;;6159524;23;20048;-81
2023/03/06 08:26:28;;;;;;;14.32;6.15;;;4.70;91.30;;;;;;6132132;23;20111;-80
2023/03/06 08:29:00;;;;;;;15.98;6.68;;;4.70;91.20;;;;;;6134702;23;20017;-80
2023/03/06 08:31:30;;;;;;;19.30;7.93;;;4.80;91.00;;;;;;6134967;23;20021;-81
2023/03/06 08:34:02;;;;;;;17.58;6.45;;;4.60;90.50;;;;;;6160379;23;20029;-80
2023/03/06 08:36:30;;;;;;;16.83;7.00;;;4.60;90.90;;;;;;6134246;23;20035;-80
2023/03/06 08:38:59;;;;;;;19.23;6.95;;;4.90;90.60;;;;;;6135284;23;20012;-80
2023/03/06 08:41:27;;;;;;;17.45;6.70;;;5.00;90.50;;;;;;6132912;23;20449;-80
2023/03/06 08:43:59;;;;;;;17.55;7.78;;;4.90;90.60;;;;;;6134452;23;20017;-80
2023/03/06 08:46:28;;;;;;;16.65;7.38;;;5.10;90.00;;;;;;6156665;23;20025;-80
2023/03/06 08:48:56;;;;;;;16.20;7.25;;;5.00;89.40;;;;;;6152494;23;20027;-80
2023/03/06 08:51:24;;;;;;;23.13;9.70;;;5.30;88.20;;;;;;6152603;23;20020;-80
2023/03/06 08:53:52;;;;;;;15.00;6.13;;;5.30;87.90;;;;;;6129425;23;20335;-80
2023/03/06 08:56:29;;;;;;;14.25;6.60;;;5.40;87.70;;;;;;6134010;23;20075;-80
2023/03/06 08:58:58;;;;;;;16.55;7.00;;;5.50;87.40;;;;;;6132368;23;20021;-80
2023/03/06 09:01:29;;;;;;;18.30;6.45;;;5.60;86.80;;;;;;6154494;23;20025;-80
2023/03/06 09:04:05;;;;;;;14.30;5.75;;;6.10;87.40;;;;;;6130591;23;20040;-80
2023/03/06 09:06:36;;;;;;;20.13;7.90;;;6.30;85.90;;;;;;6156530;23;20571;-80
2023/03/06 09:09:10;;;;;;;16.38;5.82;;;6.30;84.60;;;;;;6132272;23;20057;-81
2023/03/06 09:11:38;;;;;;;14.05;5.15;;;6.40;84.70;;;;;;6155885;23;20045;-80
2023/03/06 09:14:06;;;;;;;11.57;4.50;;;6.30;83.70;;;;;;6129715;23;20025;-80
2023/03/06 09:16:33;;;;;;;17.67;5.63;;;6.40;83.40;;;;;;6132947;23;20156;-80
2023/03/06 09:19:02;;;;;;;16.77;5.80;;;6.80;82.90;;;;;;6133762;23;20025;-81
2023/03/06 09:21:29;;;;;;;12.77;5.00;;;6.80;82.40;;;;;;6133838;23;20025;-81
2023/03/06 09:23:59;;;;;;;13.25;5.38;;;7.10;83.50;;;;;;6119434;23;20021;-79
2023/03/06 09:26:26;;;;;;;14.55;6.65;;;7.10;81.60;;;;;;6142972;23;20071;-80
2023/03/06 09:29:11;;;;;;;18.15;5.82;;;7.10;80.90;;;;;;6123728;23;20499;-80
2023/03/06 09:31:38;;;;;;;21.13;9.18;;;7.10;80.30;;;;;;6149873;23;20083;-80
2023/03/06 09:34:08;;;;;;;19.77;5.97;;;7.10;80.70;;;;;;6122193;23;20122;-79
2023/03/06 09:36:36;;;;;;;27.45;6.00;;;6.90;80.60;;;;;;6150953;23;20059;-80
2023/03/06 09:39:24;;;;;;;13.90;6.60;;;6.90;81.30;;;;;;6150452;23;20032;-80
2023/03/06 09:41:52;;;;;;;15.48;6.10;;;6.90;80.50;;;;;;6137221;23;20067;-80
2023/03/06 09:44:26;;;;;;;16.80;5.00;;;6.90;79.80;;;;;;6149297;23;20021;-80
2023/03/06 09:47:09;;;;;;;15.25;6.28;;;7.00;81.50;;;;;;6128263;23;20131;-80
2023/03/06 09:50:10;;;;;;;14.25;6.28;;;7.00;81.40;;;;;;6124466;23;20025;-80
2023/03/06 09:53:10;;;;;;;14.48;5.22;;;6.90;80.70;;;;;;6118711;23;20021;-80
2023/03/06 09:55:44;;;;;;;13.50;4.28;;;7.00;80.90;;;;;;6102328;23;20690;-80
2023/03/06 09:58:21;;;;;;;15.93;5.25;;;6.90;80.30;;;;;;6144585;23;20352;-79
2023/03/06 10:01:34;;;;;;;11.25;4.85;;;7.00;81.40;;;;;;6146467;23;20021;-79
2023/03/06 10:04:27;;;;;;;14.75;6.05;;;7.00;80.50;;;;;;6116222;23;20024;-80
2023/03/06 10:07:14;;;;;;;16.00;5.03;;;6.90;79.30;;;;;;6119468;23;20028;-80
2023/03/06 10:09:53;;;;;;;13.27;4.82;;;7.10;80.00;;;;;;6118890;23;20020;-80
2023/03/06 10:12:27;;;;;;;34.80;9.25;;;7.20;79.20;;;;;;6118291;23;20031;-80
2023/03/06 10:15:09;;;;;;;17.20;6.05;;;7.20;79.30;;;;;;6119334;23;20432;-80
2023/03/06 10:17:39;;;;;;;13.80;5.37;;;7.20;78.80;;;;;;6121373;23;20036;-80
2023/03/06 10:20:16;;;;;;;17.05;4.90;;;7.00;79.50;;;;;;6121076;23;21005;-80
2023/03/06 10:22:57;;;;;;;10.55;3.85;;;7.10;79.60;;;;;;6123098;23;20021;-80
2023/03/06 10:25:58;;;;;;;15.40;4.63;;;7.00;78.60;;;;;;6124422;23;20017;-80
2023/03/06 10:28:25;;;;;;;16.85;6.30;;;7.00;78.50;;;;;;6118551;23;20452;-80
2023/03/06 10:30:59;;;;;;;11.77;4.18;;;7.10;79.80;;;;;;6122170;23;20025;-80
2023/03/06 10:33:46;;;;;;;11.05;4.43;;;7.10;79.50;;;;;;6145753;23;20260;-79
2023/03/06 10:36:19;;;;;;;14.52;5.35;;;7.10;79.30;;;;;;6118798;23;20032;-80
2023/03/06 10:38:47;;;;;;;11.50;4.13;;;7.20;78.90;;;;;;6118335;23;20438;-80
2023/03/06 10:41:28;;;;;;;12.02;4.35;;;7.20;78.20;;;;;;6119196;23;20416;-80
2023/03/06 10:44:04;;;;;;;9.68;3.42;;;7.20;77.90;;;;;;6117870;23;20476;-80
2023/03/06 10:46:36;;;;;;;11.68;4.05;;;7.20;79.00;;;;;;6117914;23;20037;-79
2023/03/06 10:49:20;;;;;;;10.17;3.27;;;7.00;78.50;;;;;;6122829;23;20075;-80
2023/03/06 10:52:14;;;;;;;10.30;3.90;;;7.10;78.20;;;;;;6120003;23;20520;-80
2023/03/06 10:54:43;;;;;;;11.27;4.50;;;7.00;77.70;;;;;;6127841;23;20341;-80
2023/03/06 10:57:24;;;;;;;11.82;5.65;;;7.10;78.30;;;;;;6143369;23;20025;-80
2023/03/06 10:59:57;;;;;;;12.82;4.60;;;7.00;78.90;;;;;;6142692;23;20300;-79
2023/03/06 11:02:37;;;;;;;14.80;5.15;;;7.20;79.10;;;;;;6118347;23;20051;-80
2023/03/06 11:05:16;;;;;;;16.60;4.72;;;7.00;78.30;;;;;;6122422;23;20021;-80
2023/03/06 11:07:58;;;;;;;13.55;5.47;;;6.90;78.40;;;;;;6124774;23;20228;-80
2023/03/06 11:10:27;;;;;;;12.70;4.65;;;7.10;79.00;;;;;;6115598;23;20025;-79
2023/03/06 11:13:01;;;;;;;11.85;4.95;;;7.20;79.20;;;;;;6114802;23;20116;-80
2023/03/06 11:15:30;;;;;;;;;;;7.20;79.20;;;;;;6143405;23;20524;-80
2023/03/06 11:18:22;;;;;;;13.93;4.75;;;7.30;78.30;;;;;;6142807;23;19920;-80
2023/03/06 11:20:53;;;;;;;15.85;5.68;;;7.40;79.00;;;;;;6142320;23;20021;-80
2023/03/06 11:23:46;;;;;;;13.40;5.97;;;7.30;78.90;;;;;;6143289;23;20017;-80
2023/03/06 11:26:22;;;;;;;16.08;5.88;;;7.50;78.00;;;;;;6145250;23;20520;-80
2023/03/06 11:29:09;;;;;;;14.75;5.32;;;7.70;79.30;;;;;;6133626;23;20032;-80
2023/03/06 11:32:08;;;;;;;13.70;4.75;;;7.50;78.80;;;;;;6121239;23;20025;-80
2023/03/06 11:34:56;;;;;;;17.33;6.20;;;7.70;78.30;;;;;;6150366;23;20021;-79
2023/03/06 11:37:53;;;;;;;12.00;4.43;;;7.70;76.20;;;;;;6124506;23;20025;-80
2023/03/06 11:40:30;;;;;;;14.43;4.93;;;7.70;76.10;;;;;;6122071;23;20028;-80
2023/03/06 11:43:07;;;;;;;13.57;4.90;;;7.90;75.90;;;;;;6124710;23;20660;-79
2023/03/06 11:45:46;;;;;;;13.45;5.40;;;7.90;75.30;;;;;;6123051;23;20053;-80
2023/03/06 11:48:13;;;;;;;15.60;4.90;;;7.80;75.40;;;;;;6115139;23;20018;-80
2023/03/06 11:51:21;;;;;;;10.30;4.40;;;7.90;76.20;;;;;;6113940;23;20021;-80
2023/03/06 11:53:49;;;;;;;14.95;5.07;;;8.10;76.00;;;;;;6075402;23;20451;-80
2023/03/06 11:56:25;;;;;;;13.00;5.03;;;8.20;76.30;;;;;;6002003;23;20050;-80
2023/03/06 11:59:25;;;;;;;12.57;4.93;;;8.20;75.70;;;;;;6045800;23;20025;-79
2023/03/06 12:02:04;;;;;;;14.23;4.53;;;8.20;76.20;;;;;;6085033;23;20022;-80
2023/03/06 12:05:00;;;;;;;9.60;4.00;;;8.40;75.80;;;;;;6055195;23;20028;-80
2023/03/06 12:07:33;;;;;;;13.20;4.82;;;8.30;74.70;;;;;;6082963;23;20086;-80
2023/03/06 12:10:29;;;;;;;8.20;2.70;;;8.10;74.10;;;;;;6061642;23;20081;-79
2023/03/06 12:13:19;;;;;;;12.73;4.93;;;8.30;74.10;;;;;;6061461;23;20482;-78
2023/03/06 12:16:10;;;;;;;10.27;3.78;;;8.30;74.20;;;;;;6084221;23;20029;-79
2023/03/06 12:18:54;;;;;;;12.45;4.57;;;8.20;73.90;;;;;;6089206;23;20169;-79
2023/03/06 12:22:13;;;;;;;10.82;3.80;;;8.20;73.40;;;;;;6059138;23;20022;-81
2023/03/06 12:25:04;;;;;;;9.23;3.78;;;8.20;73.20;;;;;;6010500;23;20026;-79
2023/03/06 12:27:55;;;;;;;10.40;3.85;;;8.20;73.30;;;;;;6084169;23;20035;-80
2023/03/06 12:31:03;;;;;;;14.48;4.63;;;8.30;72.80;;;;;;6114249;23;20032;-78
2023/03/06 12:33:47;;;;;;;17.75;5.55;;;8.30;72.30;;;;;;6117582;23;20041;-80
2023/03/06 12:36:19;;;;;;;15.77;4.07;;;8.20;72.70;;;;;;6137550;23;20470;-79
2023/03/06 12:38:55;;;;;;;11.63;4.78;;;8.20;73.00;;;;;;6139241;23;20025;-80
2023/03/06 12:41:45;;;;;;;23.17;7.93;;;8.20;73.00;;;;;;6138685;23;20305;-79
2023/03/06 12:44:38;;;;;;;15.23;6.25;;;8.10;73.00;;;;;;6137425;23;20026;-80
2023/03/06 12:47:12;;;;;;;13.73;5.00;;;8.00;72.50;;;;;;6099076;23;20022;-80
2023/03/06 12:49:43;;;;;;;11.25;4.03;;;8.00;73.50;;;;;;6113766;23;20021;-78
2023/03/06 12:52:21;;;;;;;9.20;3.70;;;8.00;73.30;;;;;;6118508;23;20088;-80
2023/03/06 12:55:00;;;;;;;12.90;4.70;;;7.80;72.50;;;;;;6118813;23;20022;-80
2023/03/06 12:57:29;;;;;;;9.30;3.95;;;7.90;72.80;;;;;;6134842;23;20453;-80
2023/03/06 12:59:57;;;;;;;11.43;4.45;;;7.90;72.90;;;;;;6110634;23;20450;-79
2023/03/06 13:02:34;;;;;;;12.40;4.50;;;8.00;72.30;;;;;;6112264;23;20587;-80
2023/03/06 13:05:32;;;;;;;10.57;3.10;;;7.80;70.80;;;;;;6113216;23;20026;-80
2023/03/06 13:08:19;;;;;;;10.43;3.63;;;7.70;71.00;;;;;;6111056;23;20018;-79
2023/03/06 13:11:18;;;;;;;10.98;4.18;;;7.90;71.30;;;;;;6113263;23;20357;-79
2023/03/06 13:13:47;;;;;;;9.48;3.95;;;7.80;70.90;;;;;;6136625;23;20423;-79
2023/03/06 13:16:22;;;;;;;13.88;4.57;;;7.80;70.90;;;;;;6113344;23;20492;-80
2023/03/06 13:18:55;;;;;;;14.27;5.10;;;7.80;71.80;;;;;;6139216;23;20422;-79